Data Viewer
| City | State | Eastern Time | Source | Temp | DewPt | RH | BP | 5 Min Precip | Wind Speed | Wind Dir | 5 Min Wind Max | 5 Min Wind Max Dir |
|---|---|---|---|---|---|---|---|---|---|---|---|---|
| New York JFK | NY | 2026-05-01 16:51 | ASOS | 56 | 41 | 57 | 29.87 | 23 | S | |||
| New York JFK | NY | 2026-05-02 05:51 | ASOS | 52 | 46 | 80 | 29.89 | 10 | W | |||
| New York JFK | NY | 2026-05-02 14:51 | ASOS | 61 | 37 | 41 | 29.86 | 8 | WNW | |||
| New York JFK | NY | 2026-05-02 13:51 | ASOS | 61 | 41 | 48 | 29.87 | 8 | WSW | |||
| New York JFK | NY | 2026-05-02 12:51 | ASOS | 57 | 43 | 59 | 29.88 | 9 | W | |||
| New York JFK | NY | 2026-05-02 11:51 | ASOS | 55 | 43 | 62 | 29.89 | 5 | NNE | |||
| New York JFK | NY | 2026-05-02 10:51 | ASOS | 55 | 43 | 62 | 29.89 | 3 | WNW | |||
| New York JFK | NY | 2026-05-02 09:51 | ASOS | 54 | 45 | 71 | 29.90 | 7 | WSW | |||
| New York JFK | NY | 2026-05-02 09:39 | ASOS | 55 | 44 | 67 | 29.90 | 6 | WSW | |||
| New York JFK | NY | 2026-05-02 08:51 | ASOS | 54 | 46 | 77 | 29.90 | 0 | N | |||
| New York JFK | NY | 2026-05-02 07:51 | ASOS | 52 | 45 | 76 | 29.89 | 6 | NNE | |||
| New York JFK | NY | 2026-05-02 06:51 | ASOS | 51 | 47 | 86 | 29.88 | 0 | N | |||
| New York JFK | NY | 2026-05-02 04:51 | ASOS | 51 | 45 | 79 | 29.88 | 12 | SW | |||
| New York JFK | NY | 2026-05-01 17:51 | ASOS | 54 | 43 | 66 | 29.87 | 23 | S | |||
| New York JFK | NY | 2026-05-02 03:51 | ASOS | 51 | 45 | 79 | 29.89 | 9 | SW | |||
| New York JFK | NY | 2026-05-02 02:51 | ASOS | 52 | 44 | 74 | 29.89 | 10 | SW | |||
| New York JFK | NY | 2026-05-02 01:51 | ASOS | 51 | 43 | 74 | 29.90 | 12 | SSW | |||
| New York JFK | NY | 2026-05-02 00:51 | ASOS | 52 | 42 | 69 | 29.88 | 6 | SW | |||
| New York JFK | NY | 2026-05-01 23:51 | ASOS | 53 | 42 | 66 | 29.90 | 14 | SSW | |||
| New York JFK | NY | 2026-05-01 22:51 | ASOS | 53 | 45 | 74 | 29.90 | 12 | SSW | |||
| New York JFK | NY | 2026-05-01 21:51 | ASOS | 51 | 46 | 83 | 29.89 | 16 | S | |||
| New York JFK | NY | 2026-05-01 20:51 | ASOS | 52 | 44 | 74 | 29.89 | 18 | S | |||
| New York JFK | NY | 2026-05-01 19:51 | ASOS | 52 | 43 | 71 | 29.88 | 20 | S | |||
| New York JFK | NY | 2026-05-01 18:51 | ASOS | 53 | 44 | 71 | 29.86 | 21 | S | |||
| New York JFK | NY | 2026-05-02 15:51 | ASOS | 62 | 34 | 35 | 29.83 | 8 | W |
data collection created in 0.0097160339355469 (queried in 0.005763) rendered in: 3.504753112793E-5

